Accueil
METAR-TAF:

METAR-TAF

Aéroports :

Aérodrome de Tiree

Tiree, Écosse

latitude: 56-30N, longitude: 006-53W, altitude: 12 m

Observation

Le bulletin a été fait il y a 1 heure et 13 minutes, à 15:20 UTC
Vent 6 kt de nord
Température 9°C
Humidité 66%
Pression 1019 hPa
Visibilité 10 km ou plus
Quelques nuages à une hauteur de 3400 ft

METAR: EGPU 171520Z 36006KT 9999 FEW034 09/03 Q1019

Heure: 17:33 (16:33 UTC)

Prévision

Le bulletin a été fait il y a 2 heures et 31 minutes, à 14:02 UTC
Prévision valable du 17 à 15 UTC au 17 à 18 UTC
Vent 5 kt de nord
Visibilité 10 km ou plus
Quelques nuages à une hauteur de 3000 ft

TAF: EGPU 171402Z 1715/1718 36005KT 9999 FEW030

Observations et prévisions météorologiques de plus de 4000 aéroports (messages METAR et TAF).

Les stations disponibles sont représentées par des disques jaunes et rouges sur la carte.

Passer la souris dessus pour voir le nom de la station.

Cliquer dessus pour voir les observations et prévisions météorologiques.

Pour changer de carte: cliquez sur les boutons verts avec une croix noire pour zoomer, sur le bouton vert avec un tiret pour effectuer un zoom arrière, ou sur les flèches vertes pour les cartes adjacentes.


METAR-TAF: